CHH947 ZJSY-ZBAD
Flight info
| Callsign | CHH947 |
|---|---|
| Flight time | 1h 22m |
| Altitude | 36000 |
| Route | PORAP9Z PORAP W222 NUMKU/K0902S1310 W223 AGTEL/K0911S1250 W71 LH/K0904S1310 R339 BHY W159 IVPUB/K0913S1250 W120 ENKUS R343 GOSMA W82 UPMAT W56 ORODO/K0913S1310 W62 KARVU/K0909S1250 W62 IGDID/K0913S1310 W62 TEKIL G212 BELAX BELAX5 |
| Aircraft | A339/H-SDE3GHIJ2J3J5M1RVWXYZ/LB2D1 |
Departure
| Time | 2026-05-06 09:43 |
|---|---|
| Airport | Sanya Phoenix International Airport (ZJSY) |
Arrival
| Time | 2026-05-06 11:05 |
|---|---|
| Airport | Beijing Daxing International Airport (ZBAD) |
| Time | Latitude | Longitude | Altitude | Speed | Heading |
|---|---|---|---|---|---|
| 2026-05-06 09:27 | 18.30860 | 109.41055 | 90 ft | 0 kts | 352° |
| 2026-05-06 09:33 | 18.30853 | 109.41056 | 90 ft | 2 kts | 352° |
| 2026-05-06 09:34 | 18.30837 | 109.41058 | 91 ft | 2 kts | 352° |
| 2026-05-06 09:34 | 18.30820 | 109.41061 | 91 ft | 2 kts | 352° |
| 2026-05-06 09:34 | 18.30804 | 109.41064 | 90 ft | 2 kts | 356° |
| 2026-05-06 09:34 | 18.30788 | 109.41064 | 90 ft | 2 kts | 31° |
| 2026-05-06 09:35 | 18.30774 | 109.41055 | 90 ft | 2 kts | 54° |
| 2026-05-06 09:35 | 18.30764 | 109.41041 | 91 ft | 2 kts | 72° |
| 2026-05-06 09:35 | 18.30761 | 109.41031 | 91 ft | 0 kts | 84° |
| 2026-05-06 09:37 | 18.30761 | 109.41032 | 91 ft | 1 kts | 84° |
| 2026-05-06 09:37 | 18.30760 | 109.41072 | 92 ft | 10 kts | 101° |
| 2026-05-06 09:37 | 18.30707 | 109.41110 | 93 ft | 9 kts | 161° |
| 2026-05-06 09:37 | 18.30644 | 109.41122 | 95 ft | 9 kts | 170° |
| 2026-05-06 09:38 | 18.30581 | 109.41132 | 92 ft | 9 kts | 172° |
| 2026-05-06 09:38 | 18.30517 | 109.41140 | 92 ft | 9 kts | 174° |
| 2026-05-06 09:38 | 18.30469 | 109.41171 | 94 ft | 8 kts | 122° |
| 2026-05-06 09:38 | 18.30467 | 109.41224 | 93 ft | 9 kts | 84° |
| 2026-05-06 09:39 | 18.30481 | 109.41330 | 93 ft | 21 kts | 81° |
| 2026-05-06 09:39 | 18.30507 | 109.41522 | 94 ft | 30 kts | 83° |
| 2026-05-06 09:39 | 18.30530 | 109.41724 | 95 ft | 26 kts | 79° |
| 2026-05-06 09:39 | 18.30552 | 109.41903 | 98 ft | 24 kts | 82° |
| 2026-05-06 09:40 | 18.30574 | 109.42069 | 97 ft | 22 kts | 82° |
| 2026-05-06 09:40 | 18.30594 | 109.42224 | 99 ft | 21 kts | 82° |
| 2026-05-06 09:40 | 18.30632 | 109.42505 | 101 ft | 18 kts | 82° |
| 2026-05-06 09:41 | 18.30647 | 109.42631 | 105 ft | 17 kts | 83° |
| 2026-05-06 09:41 | 18.30641 | 109.42746 | 104 ft | 15 kts | 113° |
| 2026-05-06 09:41 | 18.30575 | 109.42802 | 106 ft | 12 kts | 159° |
| 2026-05-06 09:41 | 18.30505 | 109.42795 | 105 ft | 9 kts | 217° |
| 2026-05-06 09:42 | 18.30489 | 109.42735 | 102 ft | 9 kts | 258° |
| 2026-05-06 09:42 | 18.30470 | 109.42596 | 101 ft | 48 kts | 262° |
| 2026-05-06 09:42 | 18.30386 | 109.41983 | 99 ft | 119 kts | 262° |
| 2026-05-06 09:42 | 18.30234 | 109.40904 | 108 ft | 175 kts | 261° |
| 2026-05-06 09:43 | 18.30038 | 109.39531 | 391 ft | 200 kts | 261° |
| 2026-05-06 09:43 | 18.29741 | 109.38152 | 1296 ft | 188 kts | 248° |
| 2026-05-06 09:43 | 18.29225 | 109.36920 | 2137 ft | 185 kts | 240° |
| 2026-05-06 09:43 | 18.28609 | 109.35669 | 2507 ft | 201 kts | 240° |
| 2026-05-06 09:44 | 18.27957 | 109.34286 | 2749 ft | 221 kts | 243° |
| 2026-05-06 09:44 | 18.27289 | 109.32746 | 2953 ft | 242 kts | 244° |
| 2026-05-06 09:44 | 18.26614 | 109.31078 | 3359 ft | 251 kts | 246° |
| 2026-05-06 09:44 | 18.25942 | 109.29380 | 3924 ft | 252 kts | 246° |
| 2026-05-06 09:45 | 18.25267 | 109.27669 | 4470 ft | 254 kts | 247° |
| 2026-05-06 09:45 | 18.24584 | 109.25950 | 5022 ft | 256 kts | 247° |
| 2026-05-06 09:45 | 18.23890 | 109.24216 | 5545 ft | 258 kts | 247° |
| 2026-05-06 09:45 | 18.23190 | 109.22471 | 6068 ft | 260 kts | 248° |
| 2026-05-06 09:46 | 18.22693 | 109.20650 | 6506 ft | 260 kts | 268° |
| 2026-05-06 09:46 | 18.22978 | 109.18799 | 7001 ft | 258 kts | 295° |
| 2026-05-06 09:46 | 18.24910 | 109.16717 | 7682 ft | 261 kts | 337° |
| 2026-05-06 09:46 | 18.28468 | 109.16883 | 8512 ft | 270 kts | 29° |
| 2026-05-06 09:47 | 18.30705 | 109.20017 | 9338 ft | 278 kts | 68° |
| 2026-05-06 09:47 | 18.32284 | 109.23791 | 10180 ft | 285 kts | 65° |
| 2026-05-06 09:47 | 18.33991 | 109.27588 | 11025 ft | 289 kts | 64° |
| 2026-05-06 09:47 | 18.35723 | 109.31445 | 11858 ft | 294 kts | 64° |
| 2026-05-06 09:48 | 18.37450 | 109.35317 | 12678 ft | 299 kts | 65° |
| 2026-05-06 09:48 | 18.39115 | 109.39051 | 13509 ft | 302 kts | 65° |
| 2026-05-06 09:48 | 18.40912 | 109.43099 | 14244 ft | 308 kts | 65° |
| 2026-05-06 09:48 | 18.42733 | 109.47215 | 15014 ft | 312 kts | 65° |
| 2026-05-06 09:49 | 18.44584 | 109.51394 | 15733 ft | 317 kts | 65° |
| 2026-05-06 09:49 | 18.46455 | 109.55628 | 16513 ft | 321 kts | 65° |
| 2026-05-06 09:49 | 18.48584 | 109.59801 | 17195 ft | 325 kts | 50° |
| 2026-05-06 09:49 | 18.52019 | 109.62851 | 17917 ft | 325 kts | 25° |
| 2026-05-06 09:50 | 18.56221 | 109.64797 | 18287 ft | 340 kts | 21° |
| 2026-05-06 09:50 | 18.60669 | 109.66925 | 18486 ft | 361 kts | 22° |
| 2026-05-06 09:50 | 18.65370 | 109.69194 | 18665 ft | 381 kts | 22° |
| 2026-05-06 09:50 | 18.68628 | 109.70761 | 18774 ft | 394 kts | 22° |
| 2026-05-06 09:51 | 18.73566 | 109.73140 | 19008 ft | 408 kts | 22° |
| 2026-05-06 09:51 | 18.78668 | 109.75601 | 19664 ft | 410 kts | 22° |
| 2026-05-06 09:51 | 18.83949 | 109.78141 | 20272 ft | 414 kts | 22° |
| 2026-05-06 09:51 | 18.89220 | 109.80671 | 20905 ft | 417 kts | 22° |
| 2026-05-06 09:52 | 18.94518 | 109.83218 | 21506 ft | 421 kts | 22° |
| 2026-05-06 09:52 | 18.99800 | 109.85759 | 22127 ft | 424 kts | 22° |
| 2026-05-06 09:52 | 19.05255 | 109.88388 | 22750 ft | 427 kts | 22° |
| 2026-05-06 09:52 | 19.10685 | 109.91005 | 23353 ft | 431 kts | 22° |
| 2026-05-06 09:53 | 19.16156 | 109.93645 | 23888 ft | 433 kts | 22° |
| 2026-05-06 09:53 | 19.21603 | 109.96271 | 24401 ft | 437 kts | 22° |
| 2026-05-06 09:53 | 19.27218 | 109.98969 | 24926 ft | 440 kts | 21° |
| 2026-05-06 09:53 | 19.32773 | 110.01524 | 25447 ft | 442 kts | 21° |
| 2026-05-06 09:54 | 19.38482 | 110.04255 | 25963 ft | 446 kts | 22° |
| 2026-05-06 09:54 | 19.44068 | 110.06968 | 26473 ft | 449 kts | 22° |
| 2026-05-06 09:54 | 19.49771 | 110.09727 | 26964 ft | 452 kts | 22° |
| 2026-05-06 09:54 | 19.55517 | 110.12503 | 27469 ft | 455 kts | 22° |
| 2026-05-06 09:55 | 19.61304 | 110.15302 | 27969 ft | 458 kts | 22° |
| 2026-05-06 09:55 | 19.67133 | 110.18122 | 28448 ft | 462 kts | 22° |
| 2026-05-06 09:55 | 19.75610 | 110.22230 | 29166 ft | 466 kts | 22° |
| 2026-05-06 09:55 | 19.87473 | 110.27986 | 30105 ft | 472 kts | 22° |
| 2026-05-06 09:56 | 19.99474 | 110.33819 | 31006 ft | 477 kts | 22° |
| 2026-05-06 09:56 | 20.12191 | 110.37172 | 31848 ft | 473 kts | 353° |
| 2026-05-06 09:56 | 20.25107 | 110.34551 | 32591 ft | 475 kts | 347° |
| 2026-05-06 09:56 | 20.38116 | 110.31835 | 33128 ft | 479 kts | 346° |
| 2026-05-06 09:57 | 20.51314 | 110.29548 | 33560 ft | 483 kts | 356° |
| 2026-05-06 09:57 | 20.64760 | 110.30326 | 34010 ft | 484 kts | 1° |
| 2026-05-06 09:57 | 20.78198 | 110.31186 | 34453 ft | 483 kts | 1° |
| 2026-05-06 09:57 | 20.91578 | 110.32065 | 34875 ft | 481 kts | 1° |
| 2026-05-06 09:58 | 21.04929 | 110.32923 | 35286 ft | 480 kts | 359° |
| 2026-05-06 09:58 | 21.17006 | 110.28458 | 35640 ft | 464 kts | 315° |
| 2026-05-06 09:58 | 21.21506 | 110.20105 | 37639 ft | 409 kts | 283° |
| 2026-05-06 09:58 | 21.22072 | 110.17130 | 38008 ft | 411 kts | 285° |
| 2026-05-06 09:59 | 21.23090 | 110.14230 | 37815 ft | 420 kts | 295° |
| 2026-05-06 09:59 | 21.23893 | 110.12492 | 37958 ft | 418 kts | 296° |
| 2026-05-06 10:00 | 21.24844 | 110.10552 | 38132 ft | 418 kts | 297° |
| 2026-05-06 10:00 | 21.26287 | 110.07724 | 37327 ft | 440 kts | 297° |
| 2026-05-06 10:00 | 21.27743 | 110.04829 | 36921 ft | 452 kts | 297° |
| 2026-05-06 10:01 | 21.29237 | 110.01843 | 36549 ft | 455 kts | 297° |
| 2026-05-06 10:01 | 21.30733 | 109.98855 | 36188 ft | 455 kts | 297° |
| 2026-05-06 10:01 | 21.32235 | 109.95862 | 35891 ft | 455 kts | 297° |
| 2026-05-06 10:01 | 21.35567 | 109.89217 | 35818 ft | 457 kts | 297° |
| 2026-05-06 10:02 | 21.38966 | 109.82447 | 35897 ft | 456 kts | 297° |
| 2026-05-06 10:02 | 21.41977 | 109.76438 | 35900 ft | 456 kts | 297° |
| 2026-05-06 10:03 | 21.44977 | 109.70439 | 35884 ft | 456 kts | 297° |
| 2026-05-06 10:03 | 21.47977 | 109.64432 | 35862 ft | 456 kts | 297° |
| 2026-05-06 10:04 | 21.50969 | 109.58433 | 35876 ft | 455 kts | 297° |
| 2026-05-06 10:04 | 21.53939 | 109.52475 | 35894 ft | 454 kts | 297° |
| 2026-05-06 10:05 | 21.57291 | 109.47678 | 35868 ft | 458 kts | 315° |
| 2026-05-06 10:05 | 21.62540 | 109.43791 | 35884 ft | 463 kts | 333° |
| 2026-05-06 10:05 | 21.68786 | 109.41931 | 35894 ft | 470 kts | 351° |
| 2026-05-06 10:05 | 21.75290 | 109.41150 | 35887 ft | 470 kts | 349° |
| 2026-05-06 10:06 | 21.88298 | 109.39424 | 35879 ft | 471 kts | 349° |
| 2026-05-06 10:06 | 22.04948 | 109.37233 | 35892 ft | 470 kts | 349° |
| 2026-05-06 10:07 | 22.17948 | 109.35515 | 35833 ft | 471 kts | 349° |
| 2026-05-06 10:07 | 22.30264 | 109.34735 | 35833 ft | 477 kts | 2° |
| 2026-05-06 10:07 | 22.43407 | 109.37208 | 35844 ft | 479 kts | 6° |
| 2026-05-06 10:08 | 22.69659 | 109.42350 | 35843 ft | 479 kts | 6° |
| 2026-05-06 10:08 | 22.95952 | 109.47541 | 35853 ft | 480 kts | 6° |
| 2026-05-06 10:09 | 23.22232 | 109.52760 | 35879 ft | 488 kts | 6° |
| 2026-05-06 10:09 | 23.49096 | 109.58116 | 35895 ft | 492 kts | 6° |
| 2026-05-06 10:10 | 23.76046 | 109.63509 | 35916 ft | 492 kts | 5° |
| 2026-05-06 10:10 | 24.02996 | 109.68923 | 35929 ft | 493 kts | 5° |
| 2026-05-06 10:11 | 24.29988 | 109.74368 | 35934 ft | 493 kts | 5° |
| 2026-05-06 10:11 | 24.56958 | 109.79831 | 35962 ft | 493 kts | 5° |
| 2026-05-06 10:12 | 24.70167 | 109.84039 | 35974 ft | 504 kts | 23° |
| 2026-05-06 10:12 | 24.81970 | 109.92610 | 35986 ft | 509 kts | 29° |
| 2026-05-06 10:12 | 25.05495 | 110.10046 | 36000 ft | 510 kts | 29° |
| 2026-05-06 10:13 | 25.28884 | 110.27469 | 36013 ft | 510 kts | 29° |
| 2026-05-06 10:13 | 25.52473 | 110.44942 | 36043 ft | 511 kts | 28° |
| 2026-05-06 10:14 | 25.76468 | 110.61736 | 36045 ft | 510 kts | 26° |
| 2026-05-06 10:14 | 26.00636 | 110.78086 | 36025 ft | 507 kts | 26° |
| 2026-05-06 10:15 | 26.24533 | 110.94300 | 36019 ft | 494 kts | 25° |
| 2026-05-06 10:15 | 26.48105 | 111.10339 | 36027 ft | 496 kts | 26° |
| 2026-05-06 10:16 | 26.71412 | 111.26883 | 36037 ft | 497 kts | 27° |
| 2026-05-06 10:16 | 26.94564 | 111.43832 | 36045 ft | 494 kts | 25° |
| 2026-05-06 10:17 | 27.18291 | 111.59299 | 36068 ft | 493 kts | 24° |
| 2026-05-06 10:17 | 27.37766 | 111.72785 | 36079 ft | 494 kts | 25° |
| 2026-05-06 10:18 | 27.61126 | 111.89008 | 36099 ft | 492 kts | 25° |
| 2026-05-06 10:18 | 27.72716 | 111.97088 | 35997 ft | 489 kts | 25° |
| 2026-05-06 10:18 | 27.75567 | 111.99096 | 36517 ft | 473 kts | 27° |
| 2026-05-06 10:19 | 27.78352 | 112.01146 | 36217 ft | 484 kts | 26° |
| 2026-05-06 10:19 | 27.81209 | 112.03138 | 36349 ft | 482 kts | 24° |
| 2026-05-06 10:19 | 27.84135 | 112.05070 | 35556 ft | 493 kts | 24° |
| 2026-05-06 10:19 | 27.87039 | 112.07107 | 35568 ft | 490 kts | 26° |
| 2026-05-06 10:20 | 27.89911 | 112.09137 | 35731 ft | 488 kts | 25° |
| 2026-05-06 10:20 | 27.92816 | 112.11159 | 35730 ft | 491 kts | 25° |
| 2026-05-06 10:20 | 28.09890 | 112.23284 | 35745 ft | 495 kts | 30° |
| 2026-05-06 10:21 | 28.32348 | 112.41250 | 35754 ft | 494 kts | 28° |
| 2026-05-06 10:21 | 28.54862 | 112.59190 | 35766 ft | 494 kts | 28° |
| 2026-05-06 10:22 | 28.77326 | 112.77188 | 35792 ft | 494 kts | 28° |
| 2026-05-06 10:22 | 28.99689 | 112.95187 | 35697 ft | 504 kts | 29° |
| 2026-05-06 10:23 | 29.22665 | 113.13803 | 35712 ft | 506 kts | 29° |
| 2026-05-06 10:23 | 29.46346 | 113.30641 | 35740 ft | 497 kts | 21° |
| 2026-05-06 10:24 | 29.70920 | 113.45365 | 35746 ft | 497 kts | 21° |
| 2026-05-06 10:24 | 29.95495 | 113.60082 | 35754 ft | 495 kts | 18° |
| 2026-05-06 10:25 | 30.20726 | 113.72625 | 35779 ft | 495 kts | 18° |
| 2026-05-06 10:25 | 30.46028 | 113.85316 | 35793 ft | 494 kts | 18° |
| 2026-05-06 10:26 | 30.71219 | 113.98027 | 35808 ft | 493 kts | 19° |
| 2026-05-06 10:26 | 30.96144 | 114.11565 | 35822 ft | 494 kts | 20° |
| 2026-05-06 10:27 | 31.21080 | 114.25127 | 35840 ft | 495 kts | 20° |
| 2026-05-06 10:27 | 31.46982 | 114.33421 | 35866 ft | 482 kts | 356° |
| 2026-05-06 10:28 | 31.73690 | 114.34277 | 35884 ft | 484 kts | 356° |
| 2026-05-06 10:28 | 32.00678 | 114.35101 | 35899 ft | 485 kts | 356° |
| 2026-05-06 10:29 | 32.27635 | 114.35934 | 35915 ft | 484 kts | 357° |
| 2026-05-06 10:29 | 32.54571 | 114.38496 | 35927 ft | 485 kts | 359° |
| 2026-05-06 10:30 | 32.81494 | 114.40974 | 35940 ft | 485 kts | 360° |
| 2026-05-06 10:30 | 33.08464 | 114.43503 | 35960 ft | 486 kts | 360° |
| 2026-05-06 10:31 | 33.35470 | 114.46048 | 35988 ft | 487 kts | 359° |
| 2026-05-06 10:31 | 33.62501 | 114.48597 | 36001 ft | 486 kts | 359° |
| 2026-05-06 10:32 | 33.89450 | 114.51127 | 36029 ft | 486 kts | 359° |
| 2026-05-06 10:32 | 34.16441 | 114.53679 | 36055 ft | 488 kts | 359° |
| 2026-05-06 10:33 | 34.43562 | 114.56260 | 36079 ft | 489 kts | 359° |
| 2026-05-06 10:33 | 34.70676 | 114.58834 | 36106 ft | 488 kts | 358° |
| 2026-05-06 10:34 | 34.97638 | 114.61408 | 36121 ft | 489 kts | 358° |
| 2026-05-06 10:34 | 35.24994 | 114.64038 | 36175 ft | 491 kts | 357° |
| 2026-05-06 10:35 | 35.52264 | 114.66677 | 36212 ft | 492 kts | 356° |
| 2026-05-06 10:35 | 35.79282 | 114.69307 | 36250 ft | 488 kts | 356° |
| 2026-05-06 10:36 | 36.06416 | 114.71969 | 36309 ft | 490 kts | 356° |
| 2026-05-06 10:36 | 36.33597 | 114.74642 | 36359 ft | 490 kts | 356° |
| 2026-05-06 10:37 | 36.60394 | 114.73990 | 36415 ft | 480 kts | 348° |
| 2026-05-06 10:37 | 36.73778 | 114.73471 | 36290 ft | 486 kts | 353° |
| 2026-05-06 10:37 | 36.87152 | 114.78758 | 36129 ft | 520 kts | 17° |
| 2026-05-06 10:38 | 37.00239 | 114.86336 | 35945 ft | 520 kts | 16° |
| 2026-05-06 10:38 | 37.12095 | 114.93904 | 37393 ft | 505 kts | 26° |
| 2026-05-06 10:38 | 37.16401 | 114.97755 | 35168 ft | 547 kts | 31° |
| 2026-05-06 10:38 | 37.19391 | 115.00596 | 35179 ft | 526 kts | 26° |
| 2026-05-06 10:39 | 37.22413 | 115.02943 | 36146 ft | 499 kts | 22° |
| 2026-05-06 10:39 | 37.25462 | 115.05144 | 35611 ft | 516 kts | 20° |
| 2026-05-06 10:39 | 37.31937 | 115.08951 | 35248 ft | 508 kts | 7° |
| 2026-05-06 10:40 | 37.36354 | 115.09996 | 35196 ft | 496 kts | 357° |
| 2026-05-06 10:40 | 37.48680 | 115.14719 | 35217 ft | 522 kts | 16° |
| 2026-05-06 10:40 | 37.75125 | 115.30469 | 35251 ft | 527 kts | 17° |
| 2026-05-06 10:41 | 37.88697 | 115.32960 | 35286 ft | 477 kts | 341° |
| 2026-05-06 10:41 | 38.01996 | 115.31015 | 35304 ft | 480 kts | 343° |
| 2026-05-06 10:41 | 38.15229 | 115.29137 | 34561 ft | 479 kts | 342° |
| 2026-05-06 10:41 | 38.23386 | 115.27906 | 31806 ft | 496 kts | 343° |
| 2026-05-06 10:42 | 38.28205 | 115.27185 | 29793 ft | 508 kts | 344° |
| 2026-05-06 10:42 | 38.31700 | 115.26672 | 28887 ft | 503 kts | 345° |
| 2026-05-06 10:42 | 38.35158 | 115.26172 | 28124 ft | 497 kts | 345° |
| 2026-05-06 10:42 | 38.38568 | 115.25677 | 27480 ft | 491 kts | 345° |
| 2026-05-06 10:43 | 38.41947 | 115.25181 | 26891 ft | 485 kts | 345° |
| 2026-05-06 10:43 | 38.45278 | 115.24688 | 26298 ft | 480 kts | 345° |
| 2026-05-06 10:43 | 38.48573 | 115.24197 | 25738 ft | 474 kts | 345° |
| 2026-05-06 10:44 | 38.55129 | 115.23763 | 24589 ft | 477 kts | 359° |
| 2026-05-06 10:44 | 38.58401 | 115.24619 | 24035 ft | 483 kts | 11° |
| 2026-05-06 10:44 | 38.61516 | 115.26274 | 23525 ft | 487 kts | 22° |
| 2026-05-06 10:44 | 38.64349 | 115.28669 | 22913 ft | 490 kts | 34° |
| 2026-05-06 10:45 | 38.66791 | 115.31724 | 22258 ft | 491 kts | 46° |
| 2026-05-06 10:45 | 38.68708 | 115.35261 | 21649 ft | 491 kts | 59° |
| 2026-05-06 10:45 | 38.70086 | 115.39308 | 21029 ft | 488 kts | 72° |
| 2026-05-06 10:45 | 38.70806 | 115.43518 | 20452 ft | 482 kts | 82° |
| 2026-05-06 10:46 | 38.71331 | 115.47739 | 19827 ft | 477 kts | 78° |
| 2026-05-06 10:46 | 38.72311 | 115.51711 | 19257 ft | 472 kts | 65° |
| 2026-05-06 10:46 | 38.73936 | 115.55383 | 18647 ft | 465 kts | 52° |
| 2026-05-06 10:46 | 38.76046 | 115.58386 | 18043 ft | 457 kts | 38° |
| 2026-05-06 10:47 | 38.78601 | 115.60700 | 17411 ft | 445 kts | 25° |
| 2026-05-06 10:47 | 38.81308 | 115.62555 | 16738 ft | 438 kts | 24° |
| 2026-05-06 10:47 | 38.83955 | 115.64463 | 16098 ft | 435 kts | 27° |
| 2026-05-06 10:47 | 38.86493 | 115.66543 | 15463 ft | 431 kts | 30° |
| 2026-05-06 10:48 | 38.88939 | 115.68740 | 14841 ft | 427 kts | 32° |
| 2026-05-06 10:48 | 38.91320 | 115.70980 | 14203 ft | 422 kts | 32° |
| 2026-05-06 10:48 | 38.94960 | 115.74475 | 13263 ft | 413 kts | 33° |
| 2026-05-06 10:48 | 38.99475 | 115.78822 | 12101 ft | 398 kts | 32° |
| 2026-05-06 10:49 | 39.03828 | 115.83002 | 10988 ft | 384 kts | 32° |
| 2026-05-06 10:49 | 39.07940 | 115.86961 | 10540 ft | 351 kts | 32° |
| 2026-05-06 10:49 | 39.11664 | 115.90550 | 10267 ft | 319 kts | 32° |
| 2026-05-06 10:49 | 39.15071 | 115.93833 | 9799 ft | 295 kts | 31° |
| 2026-05-06 10:50 | 39.17403 | 115.96073 | 9137 ft | 290 kts | 31° |
| 2026-05-06 10:50 | 39.19010 | 115.97615 | 8661 ft | 287 kts | 32° |
| 2026-05-06 10:50 | 39.20601 | 115.99147 | 8186 ft | 284 kts | 32° |
| 2026-05-06 10:50 | 39.22158 | 116.00651 | 7723 ft | 281 kts | 32° |
| 2026-05-06 10:51 | 39.23711 | 116.02153 | 7276 ft | 277 kts | 32° |
| 2026-05-06 10:51 | 39.25245 | 116.03636 | 6802 ft | 274 kts | 32° |
| 2026-05-06 10:51 | 39.26765 | 116.05109 | 6335 ft | 272 kts | 32° |
| 2026-05-06 10:51 | 39.28271 | 116.06565 | 5797 ft | 270 kts | 32° |
| 2026-05-06 10:52 | 39.29775 | 116.08015 | 5378 ft | 265 kts | 33° |
| 2026-05-06 10:52 | 39.31200 | 116.09400 | 5099 ft | 255 kts | 33° |
| 2026-05-06 10:52 | 39.32588 | 116.10748 | 4831 ft | 245 kts | 33° |
| 2026-05-06 10:52 | 39.33936 | 116.12054 | 4569 ft | 245 kts | 33° |
| 2026-05-06 10:53 | 39.35398 | 116.13457 | 4285 ft | 274 kts | 34° |
| 2026-05-06 10:53 | 39.36943 | 116.14943 | 4177 ft | 274 kts | 34° |
| 2026-05-06 10:53 | 39.38432 | 116.16393 | 4082 ft | 261 kts | 35° |
| 2026-05-06 10:53 | 39.39843 | 116.17781 | 3750 ft | 251 kts | 35° |
| 2026-05-06 10:54 | 39.41221 | 116.19132 | 3314 ft | 246 kts | 35° |
| 2026-05-06 10:54 | 39.42606 | 116.20428 | 2745 ft | 246 kts | 33° |
| 2026-05-06 10:54 | 39.44045 | 116.21597 | 2843 ft | 246 kts | 30° |
| 2026-05-06 10:54 | 39.45576 | 116.22645 | 2957 ft | 249 kts | 26° |
| 2026-05-06 10:55 | 39.47137 | 116.23609 | 2940 ft | 249 kts | 25° |
| 2026-05-06 10:55 | 39.48692 | 116.24577 | 2944 ft | 247 kts | 26° |
| 2026-05-06 10:55 | 39.50248 | 116.25538 | 2958 ft | 248 kts | 25° |
| 2026-05-06 10:55 | 39.51814 | 116.26508 | 2941 ft | 250 kts | 25° |
| 2026-05-06 10:56 | 39.53416 | 116.27359 | 2940 ft | 249 kts | 18° |
| 2026-05-06 10:56 | 39.55075 | 116.28028 | 2960 ft | 250 kts | 18° |
| 2026-05-06 10:56 | 39.56758 | 116.28625 | 2938 ft | 252 kts | 11° |
| 2026-05-06 10:56 | 39.58490 | 116.28932 | 2937 ft | 251 kts | 7° |
| 2026-05-06 10:57 | 39.60232 | 116.29216 | 2964 ft | 253 kts | 7° |
| 2026-05-06 10:57 | 39.61981 | 116.29501 | 2941 ft | 253 kts | 7° |
| 2026-05-06 10:57 | 39.63730 | 116.29787 | 2938 ft | 253 kts | 7° |
| 2026-05-06 10:57 | 39.65457 | 116.30071 | 2961 ft | 252 kts | 7° |
| 2026-05-06 10:58 | 39.67201 | 116.30357 | 2946 ft | 255 kts | 7° |
| 2026-05-06 10:58 | 39.68959 | 116.30647 | 2936 ft | 255 kts | 7° |
| 2026-05-06 10:58 | 39.70723 | 116.30937 | 2963 ft | 255 kts | 7° |
| 2026-05-06 10:58 | 39.72458 | 116.31371 | 2950 ft | 255 kts | 21° |
| 2026-05-06 10:59 | 39.73833 | 116.32582 | 2935 ft | 223 kts | 50° |
| 2026-05-06 10:59 | 39.74461 | 116.34274 | 2968 ft | 208 kts | 79° |
| 2026-05-06 10:59 | 39.74472 | 116.36139 | 2960 ft | 206 kts | 102° |
| 2026-05-06 10:59 | 39.73936 | 116.37824 | 2942 ft | 195 kts | 125° |
| 2026-05-06 11:00 | 39.73051 | 116.38985 | 2942 ft | 174 kts | 146° |
| 2026-05-06 11:00 | 39.71950 | 116.39670 | 2931 ft | 176 kts | 165° |
| 2026-05-06 11:00 | 39.70734 | 116.39829 | 2931 ft | 177 kts | 185° |
| 2026-05-06 11:00 | 39.69531 | 116.39678 | 2937 ft | 166 kts | 185° |
| 2026-05-06 11:01 | 39.68424 | 116.39414 | 2850 ft | 163 kts | 196° |
| 2026-05-06 11:01 | 39.67839 | 116.39143 | 2785 ft | 161 kts | 199° |
| 2026-05-06 11:01 | 39.66695 | 116.38424 | 2743 ft | 164 kts | 206° |
| 2026-05-06 11:01 | 39.66013 | 116.37992 | 2564 ft | 166 kts | 204° |
| 2026-05-06 11:02 | 39.64655 | 116.37171 | 2047 ft | 158 kts | 198° |
| 2026-05-06 11:02 | 39.63620 | 116.36856 | 1778 ft | 156 kts | 179° |
| 2026-05-06 11:02 | 39.62555 | 116.37025 | 1661 ft | 152 kts | 168° |
| 2026-05-06 11:02 | 39.61508 | 116.37177 | 1580 ft | 152 kts | 170° |
| 2026-05-06 11:03 | 39.60807 | 116.37276 | 1554 ft | 153 kts | 169° |
| 2026-05-06 11:03 | 39.59398 | 116.37533 | 1417 ft | 150 kts | 169° |
| 2026-05-06 11:03 | 39.58693 | 116.37638 | 1302 ft | 153 kts | 171° |
| 2026-05-06 11:03 | 39.57638 | 116.37793 | 1113 ft | 150 kts | 169° |
| 2026-05-06 11:04 | 39.56598 | 116.37977 | 958 ft | 151 kts | 170° |
| 2026-05-06 11:04 | 39.55556 | 116.38116 | 844 ft | 155 kts | 168° |
| 2026-05-06 11:04 | 39.54511 | 116.38295 | 582 ft | 147 kts | 170° |
| 2026-05-06 11:04 | 39.53441 | 116.38459 | 452 ft | 159 kts | 171° |
| 2026-05-06 11:05 | 39.52364 | 116.38625 | 251 ft | 148 kts | 169° |
| 2026-05-06 11:05 | 39.51363 | 116.38792 | 112 ft | 148 kts | 169° |
| 2026-05-06 11:05 | 39.50512 | 116.38938 | 101 ft | 83 kts | 173° |
| 2026-05-06 11:05 | 39.50296 | 116.39020 | 101 ft | 11 kts | 147° |
| 2026-05-06 11:06 | 39.50236 | 116.39071 | 99 ft | 11 kts | 146° |
| 2026-05-06 11:06 | 39.50164 | 116.39135 | 97 ft | 13 kts | 144° |
| 2026-05-06 11:06 | 39.50084 | 116.39203 | 95 ft | 14 kts | 150° |
| 2026-05-06 11:06 | 39.49992 | 116.39232 | 94 ft | 13 kts | 175° |
| 2026-05-06 11:07 | 39.49901 | 116.39246 | 96 ft | 13 kts | 173° |
| 2026-05-06 11:07 | 39.49796 | 116.39262 | 96 ft | 18 kts | 173° |
| 2026-05-06 11:07 | 39.49647 | 116.39287 | 95 ft | 25 kts | 172° |
| 2026-05-06 11:07 | 39.49464 | 116.39318 | 94 ft | 27 kts | 173° |
| 2026-05-06 11:08 | 39.49293 | 116.39365 | 94 ft | 24 kts | 146° |
| 2026-05-06 11:08 | 39.49162 | 116.39482 | 94 ft | 21 kts | 136° |
| 2026-05-06 11:08 | 39.49154 | 116.39626 | 93 ft | 15 kts | 91° |
| 2026-05-06 11:08 | 39.49163 | 116.39756 | 93 ft | 14 kts | 84° |
| 2026-05-06 11:09 | 39.49175 | 116.39870 | 99 ft | 11 kts | 85° |
| 2026-05-06 11:09 | 39.49180 | 116.39937 | 103 ft | 4 kts | 84° |
| 2026-05-06 11:09 | 39.49187 | 116.40020 | 103 ft | 24 kts | 83° |
| 2026-05-06 11:09 | 39.49207 | 116.40266 | 96 ft | 0 kts | 83° |
| 2026-05-06 11:10 | 39.49213 | 116.40321 | 94 ft | 12 kts | 81° |
| 2026-05-06 11:10 | 39.49248 | 116.40458 | 94 ft | 16 kts | 41° |
| 2026-05-06 11:10 | 39.49361 | 116.40446 | 92 ft | 18 kts | 355° |
| 2026-05-06 11:10 | 39.49501 | 116.40431 | 92 ft | 22 kts | 353° |
| 2026-05-06 11:11 | 39.49653 | 116.40408 | 94 ft | 22 kts | 353° |
| 2026-05-06 11:11 | 39.49805 | 116.40384 | 92 ft | 22 kts | 351° |
| 2026-05-06 11:11 | 39.49956 | 116.40357 | 94 ft | 22 kts | 353° |
| 2026-05-06 11:11 | 39.50100 | 116.40361 | 92 ft | 18 kts | 32° |
| 2026-05-06 11:12 | 39.50126 | 116.40482 | 92 ft | 14 kts | 83° |
| 2026-05-06 11:12 | 39.50155 | 116.40595 | 94 ft | 13 kts | 45° |
| 2026-05-06 11:12 | 39.50235 | 116.40599 | 92 ft | 12 kts | 350° |
| 2026-05-06 11:12 | 39.50319 | 116.40584 | 91 ft | 13 kts | 353° |
| 2026-05-06 11:13 | 39.50421 | 116.40521 | 93 ft | 20 kts | 324° |
| 2026-05-06 11:13 | 39.50548 | 116.40393 | 93 ft | 26 kts | 321° |
| 2026-05-06 11:13 | 39.50705 | 116.40242 | 92 ft | 27 kts | 331° |
| 2026-05-06 11:13 | 39.50851 | 116.40249 | 95 ft | 18 kts | 44° |
| 2026-05-06 11:14 | 39.50879 | 116.40395 | 93 ft | 17 kts | 79° |
| 2026-05-06 11:14 | 39.50907 | 116.40532 | 92 ft | 14 kts | 90° |
| 2026-05-06 11:14 | 39.50870 | 116.40640 | 93 ft | 10 kts | 121° |
| 2026-05-06 11:14 | 39.50863 | 116.40656 | 94 ft | 0 kts | 121° |